Terminal Aerodrome Forecast
Issued by NWS Albuquerque, NM

Home | Current Version | Previous Version | Text Only | Print | Product List | Glossary On
Versions: 1 2 3 4 5 6 7 8 9 10 11 12 13
000
FTUS45 KABQ 210500
TAFABQ
TAF
KABQ 210530Z 2106/2206 12007KT P6SM SCT250
     FM210900 09010KT P6SM FEW050
     FM211500 10015G25KT P6SM SCT050
     FM212100 12014G24KT P6SM VCSH BKN070
      TEMPO 2122/2202 6SM -TSRA OVC035CB
     FM220300 09018G28KT P6SM BKN060=

USA.gov is the U.S. government's official web portal to all federal, state and local government web resources and services.